createdAt,value
2022-11-29T00:00:02.951Z,51.84
2022-11-29T00:02:58.145Z,51.79
2022-11-29T00:05:43.857Z,51.79
2022-11-29T00:08:29.563Z,51.82
2022-11-29T00:11:39.569Z,51.88
2022-11-29T00:14:26.133Z,51.70
2022-11-29T00:17:11.644Z,51.63
2022-11-29T00:19:56.928Z,51.87
2022-11-29T00:22:42.260Z,51.74
2022-11-29T00:25:28.036Z,51.74
2022-11-29T00:28:13.587Z,51.88
2022-11-29T00:30:58.903Z,51.69
2022-11-29T00:33:44.236Z,51.85
2022-11-29T00:36:29.755Z,51.89
2022-11-29T00:39:16.381Z,51.92
2022-11-29T00:42:01.997Z,51.89
2022-11-29T00:44:47.239Z,51.81
2022-11-29T00:47:32.464Z,51.75
2022-11-29T00:50:17.906Z,51.87
2022-11-29T00:53:03.232Z,51.87
2022-11-29T00:55:49.848Z,51.92
2022-11-29T00:58:36.575Z,51.75
2022-11-29T01:01:21.922Z,51.84
2022-11-29T01:04:07.192Z,51.79
2022-11-29T01:06:53.319Z,51.90
2022-11-29T01:09:38.912Z,51.86
2022-11-29T01:12:24.101Z,51.87
2022-11-29T01:15:10.346Z,51.82
2022-11-29T01:17:55.912Z,51.86
2022-11-29T01:20:41.236Z,51.74
2022-11-29T01:23:27.475Z,51.77
2022-11-29T01:26:18.489Z,51.80
2022-11-29T01:29:03.884Z,51.76
2022-11-29T01:31:49.208Z,51.80
2022-11-29T01:34:34.485Z,51.71
2022-11-29T01:37:19.640Z,51.85
2022-11-29T01:40:05.976Z,51.78
2022-11-29T01:42:51.434Z,51.76
2022-11-29T01:45:38.549Z,51.75
2022-11-29T01:48:30.767Z,51.86
2022-11-29T01:51:16.580Z,51.77
2022-11-29T01:54:02.654Z,51.89
2022-11-29T01:56:51.452Z,51.91
2022-11-29T01:59:46.113Z,51.76
2022-11-29T02:02:36.794Z,51.91
2022-11-29T02:05:23.050Z,51.88
2022-11-29T02:08:11.213Z,51.97
2022-11-29T02:11:19.304Z,51.91
2022-11-29T02:14:40.135Z,51.82
2022-11-29T02:18:03.276Z,51.96
2022-11-29T02:21:02.986Z,51.78
2022-11-29T02:24:30.318Z,52.09
2022-11-29T02:27:44.867Z,51.95
2022-11-29T02:30:48.990Z,51.91
2022-11-29T02:33:58.886Z,51.88
2022-11-29T02:37:15.123Z,51.96
2022-11-29T02:40:35.337Z,51.91
2022-11-29T02:43:29.901Z,52.03
2022-11-29T02:46:55.404Z,52.05
2022-11-29T02:49:59.656Z,52.08
2022-11-29T02:52:59.911Z,51.85
2022-11-29T02:55:55.712Z,51.96
2022-11-29T02:58:53.147Z,52.07
2022-11-29T03:02:12.617Z,51.91
2022-11-29T03:05:06.622Z,51.74
2022-11-29T03:08:12.548Z,52.08
2022-11-29T03:11:20.508Z,52.01
2022-11-29T03:14:28.531Z,51.97
2022-11-29T03:17:39.663Z,51.81
2022-11-29T03:21:02.517Z,52.00
2022-11-29T03:23:52.803Z,52.08
2022-11-29T03:27:06.568Z,51.99
2022-11-29T03:30:05.674Z,51.94
2022-11-29T03:33:00.271Z,52.09
2022-11-29T03:36:09.505Z,52.09
2022-11-29T03:39:02.819Z,52.46
2022-11-29T03:42:05.931Z,52.27
2022-11-29T03:45:06.715Z,52.32
2022-11-29T03:48:18.877Z,52.41
2022-11-29T03:51:23.751Z,52.51
2022-11-29T03:54:17.911Z,52.42
2022-11-29T03:57:03.563Z,52.29
2022-11-29T04:00:09.433Z,52.31
2022-11-29T04:03:31.728Z,52.41
2022-11-29T04:06:39.196Z,52.65
2022-11-29T04:09:43.643Z,52.51
2022-11-29T04:13:06.501Z,52.49
2022-11-29T04:16:19.766Z,52.53
2022-11-29T04:19:34.735Z,52.62
2022-11-29T04:22:57.331Z,52.66
2022-11-29T04:26:17.033Z,52.62
2022-11-29T04:29:02.484Z,52.77
2022-11-29T04:32:16.834Z,52.70
2022-11-29T04:35:02.371Z,52.54
2022-11-29T04:38:29.764Z,52.62
2022-11-29T04:41:44.434Z,52.49
2022-11-29T04:44:49.287Z,52.67
2022-11-29T04:47:47.713Z,52.68
2022-11-29T04:50:46.026Z,52.72
2022-11-29T04:53:31.444Z,53.03
2022-11-29T04:57:02.984Z,52.47
2022-11-29T05:00:09.998Z,52.64
2022-11-29T05:03:04.387Z,53.51
2022-11-29T05:05:57.527Z,53.61
2022-11-29T05:09:09.034Z,53.85
2022-11-29T05:12:14.868Z,53.24
2022-11-29T05:15:25.103Z,53.17
2022-11-29T05:18:13.489Z,50.03
2022-11-29T05:21:09.382Z,49.86
2022-11-29T05:24:08.275Z,50.39
2022-11-29T05:27:18.672Z,50.28
2022-11-29T05:30:15.344Z,50.98
2022-11-29T05:33:58.172Z,51.39
2022-11-29T05:37:10.827Z,51.79
2022-11-29T05:40:14.436Z,51.71
2022-11-29T05:43:15.337Z,51.29
2022-11-29T05:46:31.099Z,51.15
2022-11-29T05:49:52.294Z,51.12
2022-11-29T05:53:02.143Z,51.13
2022-11-29T05:56:10.416Z,51.13
2022-11-29T05:59:22.367Z,50.99
2022-11-29T06:02:30.562Z,51.01
2022-11-29T06:05:58.413Z,51.16
2022-11-29T06:08:59.377Z,50.97
2022-11-29T06:11:49.246Z,50.98
2022-11-29T06:14:53.290Z,50.98
2022-11-29T06:17:55.174Z,51.06
2022-11-29T06:20:43.341Z,51.24
2022-11-29T06:24:02.784Z,51.26
2022-11-29T06:27:11.158Z,51.32
2022-11-29T06:30:06.910Z,51.34
2022-11-29T06:33:03.571Z,51.40
2022-11-29T06:36:07.533Z,52.06
2022-11-29T06:38:52.837Z,52.38
2022-11-29T06:41:38.187Z,52.26
2022-11-29T06:44:23.601Z,52.19
2022-11-29T06:47:09.015Z,52.22
2022-11-29T06:50:13.405Z,52.06
2022-11-29T06:53:20.551Z,52.00
2022-11-29T06:56:36.677Z,52.09
2022-11-29T06:59:39.080Z,52.02
2022-11-29T07:02:57.182Z,52.13
2022-11-29T07:05:43.032Z,52.10
2022-11-29T07:08:28.816Z,52.20
2022-11-29T07:11:15.163Z,52.08
2022-11-29T07:14:00.704Z,52.17
2022-11-29T07:16:57.020Z,52.18
2022-11-29T07:20:08.136Z,52.19
2022-11-29T07:23:31.032Z,52.12
2022-11-29T07:26:41.541Z,52.36
2022-11-29T07:29:35.953Z,52.36
2022-11-29T07:32:58.768Z,52.19
2022-11-29T07:35:53.713Z,52.55
2022-11-29T07:39:09.756Z,52.54
2022-11-29T07:42:16.465Z,52.65
2022-11-29T07:45:13.943Z,52.61
2022-11-29T07:48:00.091Z,52.88
2022-11-29T07:50:45.896Z,52.71
2022-11-29T07:53:31.572Z,52.84
2022-11-29T07:56:16.803Z,52.71
2022-11-29T07:59:02.704Z,52.78
2022-11-29T08:01:47.914Z,52.72
2022-11-29T08:04:33.127Z,52.86
2022-11-29T08:07:18.459Z,52.87
2022-11-29T08:10:05.793Z,52.91
2022-11-29T08:12:51.819Z,52.97
2022-11-29T08:15:37.430Z,52.77
2022-11-29T08:18:22.573Z,52.78
2022-11-29T08:21:08.160Z,52.74
2022-11-29T08:23:53.666Z,52.72
2022-11-29T08:26:39.033Z,53.03
2022-11-29T08:29:25.258Z,53.06
2022-11-29T08:32:10.833Z,53.03
2022-11-29T08:34:56.325Z,53.13
2022-11-29T08:37:41.508Z,52.93
2022-11-29T08:40:26.688Z,52.94
2022-11-29T08:43:11.964Z,53.19
2022-11-29T08:45:58.103Z,53.06
2022-11-29T08:48:43.661Z,53.12
2022-11-29T08:51:29.036Z,53.20
2022-11-29T08:54:14.265Z,52.99
2022-11-29T08:57:31.423Z,53.12
2022-11-29T09:00:07.369Z,53.19
2022-11-29T09:02:52.664Z,53.17
2022-11-29T09:05:38.145Z,53.18
2022-11-29T09:08:23.452Z,53.20
2022-11-29T09:11:13.267Z,53.29
2022-11-29T09:14:01.460Z,53.13
2022-11-29T09:16:47.087Z,53.28
2022-11-29T09:19:32.214Z,53.30
2022-11-29T09:22:17.607Z,53.31
2022-11-29T09:25:02.924Z,53.15
2022-11-29T09:27:48.173Z,53.21
2022-11-29T09:30:35.061Z,53.33
2022-11-29T09:33:20.550Z,53.37
2022-11-29T09:36:07.644Z,53.38
2022-11-29T09:38:53.143Z,53.26
2022-11-29T09:41:45.576Z,53.21
2022-11-29T09:44:52.084Z,53.55
2022-11-29T09:47:57.908Z,53.44
2022-11-29T09:51:02.044Z,53.47
2022-11-29T09:54:15.060Z,53.52
2022-11-29T09:57:10.333Z,53.51
2022-11-29T10:00:02.124Z,53.50
2022-11-29T10:02:57.025Z,53.31
2022-11-29T10:05:50.913Z,53.36
2022-11-29T10:08:42.622Z,53.44
2022-11-29T10:11:50.383Z,53.41
2022-11-29T10:14:50.572Z,53.55
2022-11-29T10:17:45.636Z,53.39
2022-11-29T10:20:39.679Z,53.74
2022-11-29T10:23:35.796Z,53.45
2022-11-29T10:26:23.038Z,53.42
2022-11-29T10:29:15.390Z,53.35
2022-11-29T10:32:10.062Z,53.41
2022-11-29T10:34:58.638Z,53.37
2022-11-29T10:38:01.401Z,53.54
2022-11-29T10:40:54.349Z,53.54
2022-11-29T10:43:39.532Z,53.57
2022-11-29T10:46:30.868Z,53.53
2022-11-29T10:49:19.304Z,53.16
2022-11-29T10:52:05.555Z,53.45
2022-11-29T10:54:56.651Z,53.42
2022-11-29T10:58:13.060Z,53.57
2022-11-29T11:01:08.381Z,53.57
2022-11-29T11:03:55.607Z,53.51
2022-11-29T11:06:52.480Z,53.47
2022-11-29T11:09:42.529Z,53.38
2022-11-29T11:12:30.979Z,53.45
2022-11-29T11:15:30.883Z,53.58
2022-11-29T11:18:25.538Z,53.59
2022-11-29T11:21:13.375Z,53.75
2022-11-29T11:24:02.730Z,53.66
2022-11-29T11:26:48.273Z,53.45
2022-11-29T11:29:43.951Z,53.66
2022-11-29T11:32:29.444Z,53.51
2022-11-29T11:35:23.695Z,53.49
2022-11-29T11:38:17.549Z,53.62
2022-11-29T11:41:04.788Z,53.51
2022-11-29T11:43:51.791Z,53.67
2022-11-29T11:46:49.318Z,53.58
2022-11-29T11:49:48.784Z,53.59
2022-11-29T11:52:43.831Z,53.65
2022-11-29T11:55:43.240Z,53.59
2022-11-29T11:58:31.295Z,53.67
2022-11-29T12:01:26.023Z,53.51
2022-11-29T12:04:14.944Z,53.53
2022-11-29T12:07:03.132Z,53.66
2022-11-29T12:09:55.704Z,53.65
2022-11-29T12:12:42.899Z,53.54
2022-11-29T12:15:35.562Z,53.57
2022-11-29T12:18:30.478Z,53.72
2022-11-29T12:21:22.687Z,53.55
2022-11-29T12:24:32.955Z,53.58
2022-11-29T12:27:18.527Z,53.59
2022-11-29T12:30:14.339Z,53.73
2022-11-29T12:33:21.869Z,54.02
2022-11-29T12:36:20.016Z,53.99
2022-11-29T12:39:30.134Z,53.97
2022-11-29T12:42:23.642Z,53.96
2022-11-29T12:45:18.230Z,53.92
2022-11-29T12:48:27.368Z,53.84
2022-11-29T12:51:15.854Z,54.67
2022-11-29T12:54:26.527Z,53.84
2022-11-29T12:57:49.543Z,53.75
2022-11-29T13:00:46.575Z,53.93
2022-11-29T13:03:44.121Z,53.64
2022-11-29T13:06:47.861Z,53.71
2022-11-29T13:09:39.665Z,53.73
2022-11-29T13:12:45.092Z,53.55
2022-11-29T13:15:46.531Z,54.57
2022-11-29T13:18:54.456Z,54.24
2022-11-29T13:22:04.778Z,53.77
2022-11-29T13:25:01.969Z,53.44
2022-11-29T13:28:22.621Z,51.01
2022-11-29T13:31:14.776Z,51.76
2022-11-29T13:34:30.042Z,51.68
2022-11-29T13:37:27.235Z,51.69
2022-11-29T13:40:34.810Z,51.73
2022-11-29T13:43:41.405Z,51.72
2022-11-29T13:46:41.590Z,51.43
2022-11-29T13:50:02.733Z,50.35
2022-11-29T13:52:48.335Z,50.74
2022-11-29T13:55:34.324Z,50.73
2022-11-29T13:58:28.747Z,50.91
2022-11-29T14:01:14.529Z,51.21
2022-11-29T14:04:22.732Z,51.58
2022-11-29T14:07:14.740Z,51.80
2022-11-29T14:10:07.052Z,52.05
2022-11-29T14:12:56.823Z,51.88
2022-11-29T14:15:42.906Z,52.16
2022-11-29T14:18:37.414Z,52.15
2022-11-29T14:21:22.771Z,51.83
2022-11-29T14:24:35.857Z,51.66
2022-11-29T14:27:21.323Z,51.38
2022-11-29T14:30:44.955Z,51.35
2022-11-29T14:33:49.173Z,51.81
2022-11-29T14:36:59.383Z,51.89
2022-11-29T14:39:48.350Z,51.74
2022-11-29T14:42:34.077Z,51.42
2022-11-29T14:45:37.697Z,51.61
2022-11-29T14:48:28.242Z,51.49
2022-11-29T14:51:18.802Z,51.64
2022-11-29T14:54:19.556Z,51.71
2022-11-29T14:57:42.805Z,51.96
2022-11-29T15:00:32.767Z,52.35
2022-11-29T15:03:28.597Z,51.75
2022-11-29T15:06:16.105Z,52.21
2022-11-29T15:09:15.550Z,52.28
2022-11-29T15:12:12.473Z,52.10
2022-11-29T15:15:07.552Z,52.16
2022-11-29T15:17:56.053Z,52.43
2022-11-29T15:21:03.532Z,52.19
2022-11-29T15:24:01.717Z,52.12
2022-11-29T15:27:02.074Z,52.18
2022-11-29T15:29:48.519Z,52.34
2022-11-29T15:32:34.391Z,52.34
2022-11-29T15:41:29.965Z,52.60
2022-11-29T15:44:22.413Z,52.75
2022-11-29T15:50:27.987Z,51.51
2022-11-29T15:53:20.276Z,51.51
2022-11-29T15:56:16.798Z,51.79
2022-11-29T15:59:09.584Z,51.67
2022-11-29T16:02:00.306Z,51.80
2022-11-29T16:04:47.532Z,51.83
2022-11-29T16:07:34.445Z,51.84
2022-11-29T16:10:23.377Z,51.72
2022-11-29T16:13:37.873Z,51.78
2022-11-29T16:16:27.673Z,51.98
2022-11-29T16:19:29.854Z,52.30
2022-11-29T16:22:25.010Z,52.35
2022-11-29T16:25:19.108Z,52.32
2022-11-29T16:28:06.254Z,52.26
2022-11-29T16:30:52.267Z,52.36
2022-11-29T16:33:38.389Z,52.36
2022-11-29T16:36:30.931Z,52.27
2022-11-29T16:39:23.124Z,52.25
2022-11-29T16:42:24.993Z,51.88
2022-11-29T16:45:35.513Z,52.43
2022-11-29T16:48:25.517Z,53.00
2022-11-29T16:51:13.449Z,53.15
2022-11-29T16:54:18.882Z,53.38
2022-11-29T16:57:06.346Z,53.16
2022-11-29T16:59:52.272Z,53.55
2022-11-29T17:02:37.492Z,53.46
2022-11-29T17:05:22.733Z,53.47
2022-11-29T17:08:08.175Z,53.26
2022-11-29T17:10:53.387Z,53.60
2022-11-29T17:13:39.095Z,53.75
2022-11-29T17:16:25.102Z,54.26
2022-11-29T17:19:13.495Z,53.50
2022-11-29T17:21:59.306Z,53.07
2022-11-29T17:24:48.339Z,53.56
2022-11-29T17:27:34.124Z,53.59
2022-11-29T17:30:19.645Z,54.19
2022-11-29T17:33:05.192Z,53.64
2022-11-29T17:35:50.666Z,54.00
2022-11-29T17:38:37.267Z,53.77
2022-11-29T17:41:24.977Z,54.09
2022-11-29T17:44:11.618Z,54.24
2022-11-29T17:46:57.215Z,53.99
2022-11-29T17:49:42.702Z,53.73
2022-11-29T17:52:27.906Z,53.74
2022-11-29T17:55:13.911Z,53.56
2022-11-29T17:58:00.087Z,53.18
2022-11-29T18:00:45.456Z,54.93
2022-11-29T18:03:30.779Z,53.85
2022-11-29T18:06:19.518Z,53.75
2022-11-29T18:09:07.523Z,51.46
2022-11-29T18:11:53.107Z,52.83
2022-11-29T18:14:39.271Z,53.04
2022-11-29T18:17:24.841Z,53.10
2022-11-29T18:20:10.469Z,53.15
2022-11-29T18:22:56.255Z,52.95
2022-11-29T18:25:41.791Z,52.84
2022-11-29T18:28:29.515Z,52.83
2022-11-29T18:31:18.874Z,52.96
2022-11-29T18:34:07.192Z,53.38
2022-11-29T18:36:52.918Z,53.44
2022-11-29T18:39:38.536Z,53.53
2022-11-29T18:42:23.679Z,53.62
2022-11-29T18:45:09.147Z,53.53
2022-11-29T18:47:54.787Z,53.43
2022-11-29T18:50:40.045Z,53.66
2022-11-29T18:53:25.589Z,53.67
2022-11-29T18:56:17.003Z,53.53
2022-11-29T18:59:10.204Z,53.60
2022-11-29T19:01:56.688Z,53.45
2022-11-29T19:04:42.597Z,53.49
2022-11-29T19:07:29.413Z,53.30
2022-11-29T19:10:14.656Z,53.46
2022-11-29T19:13:00.352Z,53.28
2022-11-29T19:15:52.587Z,53.34
2022-11-29T19:18:38.272Z,53.41
2022-11-29T19:21:25.821Z,53.28
2022-11-29T19:24:14.722Z,53.43
2022-11-29T19:27:01.127Z,53.39
2022-11-29T19:29:47.028Z,53.49
2022-11-29T19:32:32.669Z,53.31
2022-11-29T19:35:18.011Z,53.34
2022-11-29T19:38:03.625Z,53.28
2022-11-29T19:40:49.357Z,53.36
2022-11-29T19:43:34.836Z,53.28
2022-11-29T19:46:23.169Z,53.25
2022-11-29T19:49:09.850Z,53.15
2022-11-29T19:51:55.639Z,53.33
2022-11-29T19:54:40.885Z,53.41
2022-11-29T19:57:26.235Z,53.31
2022-11-29T20:00:12.504Z,53.38
2022-11-29T20:02:58.353Z,53.34
2022-11-29T20:05:52.663Z,53.36
2022-11-29T20:08:38.225Z,53.47
2022-11-29T20:11:25.467Z,53.60
2022-11-29T20:14:12.163Z,53.40
2022-11-29T20:16:57.772Z,53.54
2022-11-29T20:19:43.290Z,53.52
2022-11-29T20:22:29.047Z,53.51
2022-11-29T20:25:14.716Z,53.73
2022-11-29T20:28:00.372Z,53.52
2022-11-29T20:30:46.671Z,53.72
2022-11-29T20:33:32.225Z,53.72
2022-11-29T20:36:28.283Z,53.66
2022-11-29T20:39:44.698Z,53.74
2022-11-29T20:42:44.604Z,53.87
2022-11-29T20:45:30.396Z,53.83
2022-11-29T20:48:23.264Z,53.69
2022-11-29T20:51:10.849Z,53.75
2022-11-29T20:53:56.209Z,53.79
2022-11-29T20:56:41.331Z,53.82
2022-11-29T20:59:26.615Z,53.83
2022-11-29T21:02:11.928Z,53.99
2022-11-29T21:04:57.120Z,53.90
2022-11-29T21:07:44.251Z,54.04
2022-11-29T21:10:29.731Z,54.03
2022-11-29T21:13:16.633Z,53.92
2022-11-29T21:16:02.813Z,53.98
2022-11-29T21:18:48.980Z,54.02
2022-11-29T21:21:44.692Z,54.13
2022-11-29T21:25:08.680Z,54.06
2022-11-29T21:27:55.107Z,54.06
2022-11-29T21:30:41.192Z,54.02
2022-11-29T21:33:27.373Z,54.00
2022-11-29T21:36:13.451Z,54.09
2022-11-29T21:39:03.618Z,54.14
2022-11-29T21:41:50.705Z,54.05
2022-11-29T21:44:36.044Z,54.13
2022-11-29T21:47:21.248Z,54.04
2022-11-29T21:50:07.271Z,54.01
2022-11-29T21:52:52.824Z,54.11
2022-11-29T21:55:38.192Z,54.13
2022-11-29T21:58:23.446Z,54.00
2022-11-29T22:01:14.837Z,53.87
2022-11-29T22:04:00.394Z,54.00
2022-11-29T22:06:46.917Z,54.10
2022-11-29T22:09:32.308Z,54.02
2022-11-29T22:12:33.761Z,53.90
2022-11-29T22:15:24.405Z,53.88
2022-11-29T22:18:10.711Z,54.09
2022-11-29T22:20:56.191Z,54.07
2022-11-29T22:23:41.409Z,53.93
2022-11-29T22:26:28.510Z,54.11
2022-11-29T22:29:15.036Z,54.04
2022-11-29T22:32:01.227Z,54.01
2022-11-29T22:34:46.531Z,54.08
2022-11-29T22:37:32.324Z,54.04
2022-11-29T22:40:17.709Z,53.90
2022-11-29T22:43:03.156Z,53.92
2022-11-29T22:45:48.313Z,54.03
2022-11-29T22:48:38.379Z,54.03
2022-11-29T22:51:32.494Z,54.16
2022-11-29T22:54:18.203Z,54.07
2022-11-29T22:57:03.545Z,53.88
2022-11-29T22:59:48.716Z,54.08
2022-11-29T23:02:34.105Z,54.05
2022-11-29T23:05:20.264Z,53.92
2022-11-29T23:08:05.698Z,54.02
2022-11-29T23:10:57.199Z,53.93
2022-11-29T23:13:43.479Z,53.97
2022-11-29T23:16:30.368Z,54.02
2022-11-29T23:19:16.254Z,53.98
2022-11-29T23:22:01.668Z,54.03
2022-11-29T23:24:47.073Z,54.00
2022-11-29T23:27:33.359Z,53.99
2022-11-29T23:30:18.745Z,53.97
2022-11-29T23:33:04.090Z,53.98
2022-11-29T23:35:50.597Z,53.89
2022-11-29T23:38:36.879Z,53.99
2022-11-29T23:41:22.396Z,54.02
2022-11-29T23:44:09.339Z,53.93
2022-11-29T23:46:54.542Z,53.85
2022-11-29T23:49:39.899Z,53.96
2022-11-29T23:52:25.063Z,54.02
2022-11-29T23:55:14.507Z,54.05
2022-11-29T23:58:03.368Z,53.91
